Beallwood, Georgia
Current Conditions -  °F | °C
As of 12:51 AM on Thursday 29 Jan 2015 (Local Time) from KCSG Reporting Station
Clear Clear  
Wind Chill: 36°   Ceiling: Unl
Heat Index: 39°   Visibility: 8mi
Dew Point: 30°   Wind: 5mph
Humidity: 70%   Direction: 80°E
Pressure: 30.27"   Gusts: NA
Location:  32.5529°N, 84.9996°W
Report Text: KCSG 290551Z 08004KT 8SM CLR 04/M01 A3027 RMK AO2 SLP249 T00391011 10100 20039 58009
Loading
Personal Weather Stations






























Interactive Weather Map New forecast layout! Learn more

10-Day Weather Forecast

Advertisements
Track Severe Weather on mobile